createdAt,value
2018-07-20T00:01:51.362Z,12.43
2018-07-20T00:04:19.974Z,12.83
2018-07-20T00:06:48.833Z,13.13
2018-07-20T00:09:17.495Z,13.03
2018-07-20T00:11:46.971Z,12.73
2018-07-20T00:14:16.135Z,13.20
2018-07-20T00:16:46.041Z,13.20
2018-07-20T00:19:14.710Z,13.60
2018-07-20T00:21:43.406Z,13.60
2018-07-20T00:24:12.024Z,13.47
2018-07-20T00:26:40.974Z,13.40
2018-07-20T00:29:09.556Z,13.27
2018-07-20T00:31:38.247Z,12.30
2018-07-20T00:34:06.860Z,13.37
2018-07-20T00:36:35.689Z,13.27
2018-07-20T00:39:05.941Z,12.90
2018-07-20T00:41:34.589Z,13.40
2018-07-20T00:44:03.161Z,13.50
2018-07-20T00:46:32.050Z,13.90
2018-07-20T00:49:00.966Z,12.87
2018-07-20T00:51:29.661Z,13.73
2018-07-20T00:53:58.925Z,13.10
2018-07-20T00:56:27.864Z,13.37
2018-07-20T00:58:57.423Z,13.23
2018-07-20T01:01:26.313Z,13.13
2018-07-20T01:03:54.978Z,13.33
2018-07-20T01:06:24.192Z,12.93
2018-07-20T01:08:53.495Z,13.83
2018-07-20T01:11:22.390Z,13.93
2018-07-20T01:13:51.283Z,13.20
2018-07-20T01:16:20.229Z,13.43
2018-07-20T01:18:48.827Z,13.97
2018-07-20T01:21:17.793Z,13.40
2018-07-20T01:23:46.496Z,13.47
2018-07-20T01:26:15.433Z,13.77
2018-07-20T01:28:44.799Z,14.43
2018-07-20T01:31:14.198Z,13.50
2018-07-20T01:33:43.448Z,14.07
2018-07-20T01:36:12.260Z,13.87
2018-07-20T01:38:42.438Z,13.27
2018-07-20T01:41:11.348Z,12.90
2018-07-20T01:43:40.546Z,13.40
2018-07-20T01:46:10.209Z,13.77
2018-07-20T01:48:38.864Z,13.40
2018-07-20T01:51:07.448Z,13.80
2018-07-20T01:53:36.441Z,13.33
2018-07-20T01:56:05.081Z,13.30
2018-07-20T01:58:33.709Z,12.90
2018-07-20T02:01:02.746Z,13.10
2018-07-20T02:03:31.612Z,14.23
2018-07-20T02:06:00.594Z,13.00
2018-07-20T02:08:29.542Z,13.00
2018-07-20T02:11:00.104Z,13.20
2018-07-20T02:13:30.849Z,13.20
2018-07-20T02:15:59.973Z,13.00
2018-07-20T02:18:28.583Z,12.60
2018-07-20T02:20:57.805Z,13.60
2018-07-20T02:23:27.368Z,13.30
2018-07-20T02:25:56.048Z,13.40
2018-07-20T02:28:25.068Z,13.80
2018-07-20T02:30:53.667Z,14.20
2018-07-20T02:33:23.459Z,13.67
2018-07-20T02:35:52.129Z,14.33
2018-07-20T02:38:22.685Z,14.13
2018-07-20T02:40:51.630Z,14.20
2018-07-20T02:43:21.652Z,14.00
2018-07-20T02:45:50.340Z,13.67
2018-07-20T02:48:19.314Z,13.63
2018-07-20T02:50:48.018Z,12.83
2018-07-20T02:53:16.996Z,14.17
2018-07-20T02:55:46.006Z,13.77
2018-07-20T02:58:14.737Z,14.13
2018-07-20T03:00:43.377Z,13.80
2018-07-20T03:03:12.479Z,13.17
2018-07-20T03:05:41.178Z,13.97
2018-07-20T03:08:10.240Z,13.10
2018-07-20T03:10:39.650Z,13.80
2018-07-20T03:13:08.436Z,13.33
2018-07-20T03:15:38.656Z,14.33
2018-07-20T03:18:07.296Z,13.77
2018-07-20T03:20:35.985Z,13.83
2018-07-20T03:23:04.615Z,13.63
2018-07-20T03:25:33.198Z,14.53
2018-07-20T03:28:02.164Z,13.43
2018-07-20T03:30:30.758Z,14.00
2018-07-20T03:33:00.071Z,14.10
2018-07-20T03:35:28.685Z,13.27
2018-07-20T03:37:57.306Z,12.97
2018-07-20T03:40:26.394Z,13.53
2018-07-20T03:42:55.161Z,13.50
2018-07-20T03:45:23.793Z,14.20
2018-07-20T03:47:52.832Z,13.43
2018-07-20T03:50:21.721Z,13.30
2018-07-20T03:52:50.816Z,14.90
2018-07-20T03:55:20.016Z,14.00
2018-07-20T03:57:48.704Z,14.30
2018-07-20T04:00:17.743Z,13.37
2018-07-20T04:02:46.369Z,13.33
2018-07-20T04:05:15.345Z,13.63
2018-07-20T04:07:43.936Z,13.90
2018-07-20T04:10:12.591Z,13.47
2018-07-20T04:12:41.198Z,13.70
2018-07-20T04:15:09.857Z,14.53
2018-07-20T04:17:42.659Z,13.37
2018-07-20T04:20:11.566Z,14.17
2018-07-20T04:22:40.164Z,14.70
2018-07-20T04:25:08.828Z,14.10
2018-07-20T04:27:37.770Z,13.30
2018-07-20T04:30:09.784Z,12.90
2018-07-20T04:32:38.372Z,13.60
2018-07-20T04:35:08.547Z,14.00
2018-07-20T04:37:37.831Z,13.97
2018-07-20T04:40:07.441Z,13.63
2018-07-20T04:42:37.252Z,13.80
2018-07-20T04:45:07.523Z,13.23
2018-07-20T04:47:36.370Z,12.83
2018-07-20T04:50:06.889Z,13.07
2018-07-20T04:52:36.756Z,13.37
2018-07-20T04:55:06.071Z,13.20
2018-07-20T04:57:36.184Z,13.13
2018-07-20T05:00:06.399Z,13.80
2018-07-20T05:02:35.712Z,13.17
2018-07-20T05:05:05.757Z,13.80
2018-07-20T05:07:36.174Z,12.47
2018-07-20T05:10:05.049Z,13.27
2018-07-20T05:12:33.662Z,13.60
2018-07-20T05:15:02.280Z,12.30
2018-07-20T05:17:30.935Z,13.27
2018-07-20T05:19:59.538Z,12.60
2018-07-20T05:22:28.107Z,12.57
2018-07-20T05:24:56.830Z,11.90
2018-07-20T05:27:25.446Z,12.80
2018-07-20T05:29:54.389Z,12.40
2018-07-20T05:32:23.445Z,13.00
2018-07-20T05:34:52.688Z,12.77
2018-07-20T05:37:21.294Z,12.73
2018-07-20T05:39:49.953Z,12.63
2018-07-20T05:42:19.201Z,13.50
2018-07-20T05:44:48.014Z,13.20
2018-07-20T05:47:17.680Z,12.17
2018-07-20T05:49:46.759Z,11.83
2018-07-20T05:52:15.373Z,12.23
2018-07-20T05:54:44.030Z,12.07
2018-07-20T05:57:12.919Z,12.17
2018-07-20T05:59:41.698Z,11.47
2018-07-20T06:02:12.448Z,11.10
2018-07-20T06:04:41.395Z,11.90
2018-07-20T06:07:10.435Z,11.53
2018-07-20T06:09:39.628Z,11.80
2018-07-20T06:12:08.773Z,11.90
2018-07-20T06:14:37.401Z,11.83
2018-07-20T06:17:06.411Z,11.93
2018-07-20T06:19:35.329Z,11.60
2018-07-20T06:22:05.527Z,12.30
2018-07-20T06:24:34.321Z,11.90
2018-07-20T06:27:03.112Z,11.53
2018-07-20T06:29:32.463Z,11.30
2018-07-20T06:32:01.407Z,12.13
2018-07-20T06:34:30.004Z,11.70
2018-07-20T06:36:58.706Z,12.27
2018-07-20T06:39:27.341Z,12.50
2018-07-20T06:41:56.039Z,12.10
2018-07-20T06:44:24.748Z,11.97
2018-07-20T06:46:53.729Z,12.10
2018-07-20T06:49:22.464Z,12.00
2018-07-20T06:51:52.244Z,11.70
2018-07-20T06:54:21.095Z,12.07
2018-07-20T06:56:50.219Z,11.43
2018-07-20T06:59:19.224Z,11.57
2018-07-20T07:01:48.200Z,12.43
2018-07-20T07:04:17.108Z,10.97
2018-07-20T07:06:45.794Z,12.63
2018-07-20T07:09:15.057Z,11.27
2018-07-20T07:11:43.668Z,11.60
2018-07-20T07:14:12.977Z,14.17
2018-07-20T07:16:41.594Z,11.80
2018-07-20T07:19:10.549Z,11.50
2018-07-20T07:21:39.230Z,11.57
2018-07-20T07:24:08.597Z,12.00
2018-07-20T07:26:37.225Z,12.10
2018-07-20T07:29:05.979Z,11.23
2018-07-20T07:31:34.862Z,11.30
2018-07-20T07:34:03.840Z,12.63
2018-07-20T07:36:32.880Z,11.57
2018-07-20T07:39:01.514Z,11.60
2018-07-20T07:41:30.475Z,11.57
2018-07-20T07:43:59.470Z,11.80
2018-07-20T07:46:28.116Z,11.10
2018-07-20T07:48:57.418Z,12.17
2018-07-20T07:51:26.069Z,11.90
2018-07-20T07:53:54.721Z,11.87
2018-07-20T07:56:23.929Z,11.40
2018-07-20T07:58:52.593Z,11.60
2018-07-20T08:01:21.249Z,11.77
2018-07-20T08:03:49.875Z,11.73
2018-07-20T08:06:18.794Z,11.67
2018-07-20T08:08:47.472Z,11.80
2018-07-20T08:11:16.476Z,12.40
2018-07-20T08:13:45.572Z,11.73
2018-07-20T08:16:14.520Z,11.40
2018-07-20T08:18:43.445Z,12.40
2018-07-20T08:21:12.122Z,11.60
2018-07-20T08:23:41.135Z,10.90
2018-07-20T08:26:10.128Z,12.17
2018-07-20T08:28:38.765Z,11.30
2018-07-20T08:31:07.378Z,11.07
2018-07-20T08:33:36.325Z,11.40
2018-07-20T08:36:05.390Z,12.07
2018-07-20T08:38:34.517Z,11.20
2018-07-20T08:41:03.129Z,11.70
2018-07-20T08:43:32.062Z,14.77
2018-07-20T08:46:00.777Z,10.63
2018-07-20T08:48:29.408Z,11.60
2018-07-20T08:50:58.422Z,15.23
2018-07-20T08:53:27.296Z,11.70
2018-07-20T08:55:56.120Z,10.93
2018-07-20T08:58:25.126Z,11.30
2018-07-20T09:00:53.783Z,11.03
2018-07-20T09:03:22.468Z,10.83
2018-07-20T09:05:51.477Z,10.67
2018-07-20T09:08:20.082Z,10.70
2018-07-20T09:10:48.745Z,11.00
2018-07-20T09:13:17.428Z,10.67
2018-07-20T09:15:46.703Z,10.87
2018-07-20T09:18:15.337Z,10.63
2018-07-20T09:20:44.113Z,10.50
2018-07-20T09:23:12.784Z,10.60
2018-07-20T09:25:41.674Z,10.63
2018-07-20T09:28:10.693Z,10.77
2018-07-20T09:30:41.545Z,10.40
2018-07-20T09:33:10.195Z,11.27
2018-07-20T09:35:39.401Z,10.67
2018-07-20T09:38:08.349Z,10.77
2018-07-20T09:40:37.039Z,10.83
2018-07-20T09:43:05.687Z,11.13
2018-07-20T09:45:34.372Z,10.77
2018-07-20T09:48:03.099Z,10.70
2018-07-20T09:50:31.742Z,11.10
2018-07-20T09:53:00.476Z,11.27
2018-07-20T09:55:29.190Z,10.87
2018-07-20T09:57:58.105Z,10.70
2018-07-20T10:01:03.418Z,10.93
2018-07-20T10:03:32.346Z,10.33
2018-07-20T10:06:01.274Z,11.03
2018-07-20T10:08:30.066Z,10.60
2018-07-20T10:10:59.029Z,10.60
2018-07-20T10:13:27.692Z,10.77
2018-07-20T10:15:57.725Z,11.50
2018-07-20T10:18:26.374Z,11.60
2018-07-20T10:20:55.568Z,11.03
2018-07-20T10:23:24.602Z,10.77
2018-07-20T10:25:53.310Z,11.10
2018-07-20T10:28:22.276Z,10.77
2018-07-20T10:30:51.265Z,10.90
2018-07-20T10:33:19.926Z,10.83
2018-07-20T10:35:50.173Z,10.80
2018-07-20T10:38:18.875Z,11.50
2018-07-20T10:40:47.988Z,11.07
2018-07-20T10:43:16.641Z,11.00
2018-07-20T10:45:45.663Z,10.77
2018-07-20T10:48:14.796Z,10.90
2018-07-20T10:50:43.448Z,10.53
2018-07-20T10:53:12.332Z,10.80
2018-07-20T10:55:41.026Z,10.50
2018-07-20T10:58:09.947Z,10.47
2018-07-20T11:00:38.571Z,10.40
2018-07-20T11:03:08.525Z,10.80
2018-07-20T11:05:37.763Z,10.50
2018-07-20T11:08:06.599Z,11.20
2018-07-20T11:10:35.236Z,24.03
2018-07-20T11:13:04.874Z,13.10
2018-07-20T11:15:33.816Z,10.53
2018-07-20T11:18:02.529Z,10.73
2018-07-20T11:20:31.572Z,10.60
2018-07-20T11:23:00.535Z,10.17
2018-07-20T11:25:29.192Z,10.90
2018-07-20T11:27:58.285Z,10.60
2018-07-20T11:30:27.297Z,10.57
2018-07-20T11:32:55.993Z,9.83
2018-07-20T11:35:24.733Z,10.70
2018-07-20T11:37:54.025Z,10.40
2018-07-20T11:40:23.017Z,10.30
2018-07-20T11:42:52.014Z,10.23
2018-07-20T11:45:21.044Z,10.60
2018-07-20T11:47:49.729Z,11.40
2018-07-20T11:50:18.794Z,11.10
2018-07-20T11:52:47.426Z,11.10
2018-07-20T11:55:16.111Z,11.60
2018-07-20T11:57:44.795Z,11.30
2018-07-20T12:00:13.678Z,11.83
2018-07-20T12:02:42.393Z,11.90
2018-07-20T12:05:11.103Z,11.20
2018-07-20T12:07:39.755Z,10.97
2018-07-20T12:10:09.029Z,11.33
2018-07-20T12:12:38.091Z,11.20
2018-07-20T12:15:07.119Z,11.37
2018-07-20T12:17:36.200Z,10.90
2018-07-20T12:20:04.937Z,10.77
2018-07-20T12:22:33.542Z,10.80
2018-07-20T12:25:02.725Z,10.90
2018-07-20T12:27:31.715Z,10.80
2018-07-20T12:30:00.395Z,10.60
2018-07-20T12:32:29.050Z,10.53
2018-07-20T12:34:58.083Z,10.03
2018-07-20T12:37:26.703Z,10.23
2018-07-20T12:39:55.552Z,10.00
2018-07-20T12:42:24.318Z,9.95
2018-07-20T12:44:52.937Z,9.70
2018-07-20T12:47:22.089Z,9.63
2018-07-20T12:49:51.283Z,9.20
2018-07-20T12:52:20.347Z,9.75
2018-07-20T12:54:48.971Z,9.20
2018-07-20T12:57:17.652Z,9.55
2018-07-20T12:59:46.855Z,9.85
2018-07-20T13:02:17.941Z,10.05
2018-07-20T13:04:46.886Z,9.85
2018-07-20T13:07:16.128Z,10.18
2018-07-20T13:09:45.279Z,10.30
2018-07-20T13:12:13.998Z,10.50
2018-07-20T13:14:42.572Z,10.57
2018-07-20T13:17:11.235Z,10.30
2018-07-20T13:19:39.887Z,10.80
2018-07-20T13:22:08.822Z,10.60
2018-07-20T13:24:37.520Z,10.73
2018-07-20T13:27:06.150Z,11.50
2018-07-20T13:29:34.755Z,10.30
2018-07-20T13:32:03.488Z,10.77
2018-07-20T13:34:32.144Z,10.90
2018-07-20T13:37:01.017Z,10.40
2018-07-20T13:39:30.027Z,10.40
2018-07-20T13:41:59.190Z,10.30
2018-07-20T13:44:27.810Z,10.18
2018-07-20T13:46:56.418Z,9.78
2018-07-20T13:49:25.387Z,10.03
2018-07-20T13:51:54.597Z,10.08
2018-07-20T13:54:23.641Z,10.23
2018-07-20T13:56:52.718Z,9.98
2018-07-20T13:59:21.667Z,9.23
2018-07-20T14:01:56.973Z,9.90
2018-07-20T14:04:26.053Z,9.50
2018-07-20T14:06:54.685Z,9.90
2018-07-20T14:09:23.397Z,10.08
2018-07-20T14:11:52.249Z,10.18
2018-07-20T14:14:21.038Z,9.70
2018-07-20T14:16:49.910Z,9.20
2018-07-20T14:19:18.843Z,9.25
2018-07-20T14:21:47.757Z,9.05
2018-07-20T14:24:16.490Z,9.50
2018-07-20T14:26:45.210Z,9.20
2018-07-20T14:29:14.069Z,9.78
2018-07-20T14:31:42.852Z,9.50
2018-07-20T14:34:11.779Z,9.50
2018-07-20T14:36:40.733Z,9.68
2018-07-20T14:39:11.764Z,10.60
2018-07-20T14:41:40.839Z,10.38
2018-07-20T14:44:09.562Z,10.08
2018-07-20T14:46:38.556Z,10.50
2018-07-20T14:49:07.342Z,10.18
2018-07-20T14:51:36.269Z,10.35
2018-07-20T14:54:05.023Z,11.30
2018-07-20T14:56:34.005Z,10.87
2018-07-20T14:59:02.769Z,10.50
2018-07-20T15:01:31.456Z,10.83
2018-07-20T15:04:00.102Z,11.13
2018-07-20T15:06:29.135Z,11.67
2018-07-20T15:08:57.853Z,12.13
2018-07-20T15:11:26.806Z,11.57
2018-07-20T15:13:55.463Z,12.00
2018-07-20T15:16:24.703Z,12.60
2018-07-20T15:18:53.326Z,11.80
2018-07-20T15:21:21.961Z,11.97
2018-07-20T15:23:50.734Z,12.40
2018-07-20T15:26:19.645Z,11.60
2018-07-20T15:28:48.521Z,11.90
2018-07-20T15:31:17.821Z,11.90
2018-07-20T15:33:46.471Z,11.73
2018-07-20T15:36:15.133Z,12.67
2018-07-20T15:38:44.118Z,12.00
2018-07-20T15:41:13.098Z,11.57
2018-07-20T15:43:42.484Z,11.23
2018-07-20T15:46:11.686Z,12.23
2018-07-20T15:48:40.549Z,11.70
2018-07-20T15:51:09.204Z,11.53
2018-07-20T15:53:38.026Z,11.57
2018-07-20T15:56:06.746Z,11.10
2018-07-20T15:58:35.390Z,11.57
2018-07-20T16:01:04.456Z,11.63
2018-07-20T16:03:33.075Z,11.20
2018-07-20T16:06:01.825Z,11.73
2018-07-20T16:08:31.134Z,12.20
2018-07-20T16:10:59.759Z,11.87
2018-07-20T16:13:28.710Z,11.20
2018-07-20T16:15:57.388Z,11.70
2018-07-20T16:18:25.998Z,11.30
2018-07-20T16:20:54.862Z,11.53
2018-07-20T16:23:23.774Z,11.40
2018-07-20T16:25:52.805Z,11.50
2018-07-20T16:28:21.399Z,11.37
2018-07-20T16:30:50.416Z,11.73
2018-07-20T16:33:19.389Z,11.77
2018-07-20T16:35:48.365Z,11.90
2018-07-20T16:38:16.985Z,11.50
2018-07-20T16:40:45.796Z,12.70
2018-07-20T16:43:14.486Z,11.20
2018-07-20T16:45:43.125Z,11.80
2018-07-20T16:48:11.753Z,11.30
2018-07-20T16:50:40.403Z,11.30
2018-07-20T16:53:09.170Z,11.13
2018-07-20T16:55:37.772Z,12.07
2018-07-20T16:58:06.476Z,11.57
2018-07-20T17:00:35.611Z,11.83
2018-07-20T17:03:04.273Z,12.33
2018-07-20T17:05:32.893Z,11.77
2018-07-20T17:08:02.591Z,11.83
2018-07-20T17:10:31.320Z,12.20
2018-07-20T17:13:00.285Z,12.40
2018-07-20T17:15:29.047Z,12.10
2018-07-20T17:17:57.788Z,11.97
2018-07-20T17:20:26.713Z,12.40
2018-07-20T17:22:55.714Z,13.13
2018-07-20T17:25:24.369Z,12.00
2018-07-20T17:27:53.312Z,11.53
2018-07-20T17:30:22.211Z,12.30
2018-07-20T17:32:51.193Z,12.20
2018-07-20T17:35:19.799Z,13.50
2018-07-20T17:37:48.715Z,12.50
2018-07-20T17:40:17.300Z,13.07
2018-07-20T17:42:45.951Z,12.93
2018-07-20T17:45:15.043Z,12.27
2018-07-20T17:47:44.040Z,13.60
2018-07-20T17:50:13.342Z,12.97
2018-07-20T17:52:42.336Z,12.60
2018-07-20T17:55:10.998Z,11.83
2018-07-20T17:57:39.938Z,12.20
2018-07-20T18:00:08.601Z,12.50
2018-07-20T18:02:37.221Z,12.07
2018-07-20T18:05:06.634Z,11.93
2018-07-20T18:07:35.330Z,11.53
2018-07-20T18:10:05.004Z,12.17
2018-07-20T18:12:33.708Z,11.30
2018-07-20T18:15:03.307Z,11.50
2018-07-20T18:17:32.427Z,11.73
2018-07-20T18:20:01.574Z,12.00
2018-07-20T18:22:30.330Z,12.23
2018-07-20T18:24:59.369Z,11.33
2018-07-20T18:27:28.368Z,11.67
2018-07-20T18:29:57.060Z,11.43
2018-07-20T18:32:26.051Z,11.30
2018-07-20T18:34:55.041Z,12.07
2018-07-20T18:37:23.833Z,11.47
2018-07-20T18:39:52.447Z,11.70
2018-07-20T18:42:21.075Z,11.90
2018-07-20T18:44:50.070Z,11.83
2018-07-20T18:47:18.708Z,11.30
2018-07-20T18:49:47.303Z,10.50
2018-07-20T18:52:15.954Z,10.27
2018-07-20T18:54:44.984Z,10.87
2018-07-20T18:57:13.734Z,10.10
2018-07-20T18:59:46.746Z,10.10
2018-07-20T19:02:15.877Z,10.10
2018-07-20T19:04:44.765Z,10.40
2018-07-20T19:07:13.733Z,10.07
2018-07-20T19:09:43.484Z,10.73
2018-07-20T19:12:13.505Z,10.40
2018-07-20T19:14:43.238Z,10.10
2018-07-20T19:17:13.035Z,11.00
2018-07-20T19:19:42.652Z,10.37
2018-07-20T19:22:11.935Z,11.20
2018-07-20T19:24:41.081Z,10.70
2018-07-20T19:27:10.613Z,10.63
2018-07-20T19:29:39.677Z,9.90
2018-07-20T19:32:09.600Z,11.07
2018-07-20T19:34:38.414Z,10.10
2018-07-20T19:37:07.230Z,10.07
2018-07-20T19:39:35.932Z,10.63
2018-07-20T19:42:04.734Z,10.50
2018-07-20T19:44:34.020Z,11.00
2018-07-20T19:47:02.654Z,10.30
2018-07-20T19:49:31.460Z,10.60
2018-07-20T19:52:00.098Z,10.50
2018-07-20T19:54:29.262Z,11.23
2018-07-20T19:56:58.299Z,10.10
2018-07-20T19:59:27.118Z,11.00
2018-07-20T20:01:56.102Z,10.80
2018-07-20T20:04:25.112Z,10.10
2018-07-20T20:06:54.179Z,10.40
2018-07-20T20:09:23.109Z,10.00
2018-07-20T20:11:51.835Z,10.90
2018-07-20T20:14:21.254Z,10.37
2018-07-20T20:16:50.189Z,10.03
2018-07-20T20:19:19.193Z,10.67
2018-07-20T20:21:48.760Z,10.60
2018-07-20T20:24:17.419Z,10.70
2018-07-20T20:26:46.273Z,10.87
2018-07-20T20:29:14.968Z,10.30
2018-07-20T20:31:44.023Z,10.80
2018-07-20T20:34:12.764Z,10.93
2018-07-20T20:36:41.511Z,11.00
2018-07-20T20:39:12.472Z,10.67
2018-07-20T20:41:42.731Z,10.87
2018-07-20T20:44:11.432Z,10.30
2018-07-20T20:46:40.779Z,10.27
2018-07-20T20:49:09.827Z,10.30
2018-07-20T20:51:38.548Z,9.90
2018-07-20T20:54:08.379Z,10.47
2018-07-20T20:56:37.060Z,10.33
2018-07-20T20:59:05.933Z,9.73
2018-07-20T21:01:34.940Z,10.30
2018-07-20T21:04:04.702Z,10.40
2018-07-20T21:06:33.686Z,10.23
2018-07-20T21:09:02.380Z,10.30
2018-07-20T21:11:31.004Z,10.60
2018-07-20T21:13:59.659Z,10.03
2018-07-20T21:16:29.354Z,10.23
2018-07-20T21:18:59.876Z,10.40
2018-07-20T21:21:28.523Z,10.37
2018-07-20T21:23:57.174Z,10.40
2018-07-20T21:26:25.907Z,10.23
2018-07-20T21:28:54.553Z,9.90
2018-07-20T21:31:24.017Z,10.50
2018-07-20T21:33:54.317Z,11.23
2018-07-20T21:36:23.140Z,9.87
2018-07-20T21:38:52.135Z,9.63
2018-07-20T21:41:20.814Z,9.77
2018-07-20T21:43:49.498Z,10.00
2018-07-20T21:46:18.163Z,9.87
2018-07-20T21:48:48.063Z,10.07
2018-07-20T21:51:16.920Z,9.80
2018-07-20T21:53:46.259Z,9.90
2018-07-20T21:56:15.082Z,9.87
2018-07-20T21:58:45.748Z,10.77
2018-07-20T22:01:16.584Z,10.07
2018-07-20T22:03:46.001Z,21.57
2018-07-20T22:06:15.461Z,25.67
2018-07-20T22:08:44.955Z,11.20
2018-07-20T22:11:13.596Z,10.53
2018-07-20T22:13:44.094Z,9.80
2018-07-20T22:16:13.526Z,10.10
2018-07-20T22:18:43.713Z,9.43
2018-07-20T22:21:12.975Z,9.90
2018-07-20T22:23:42.696Z,9.80
2018-07-20T22:26:11.904Z,9.40
2018-07-20T22:28:41.820Z,9.73
2018-07-20T22:31:11.833Z,9.83
2018-07-20T22:33:41.118Z,9.53
2018-07-20T22:36:09.809Z,10.10
2018-07-20T22:38:38.531Z,9.73
2018-07-20T22:41:08.167Z,9.67
2018-07-20T22:43:37.150Z,9.97
2018-07-20T22:46:06.255Z,9.10
2018-07-20T22:48:35.026Z,9.37
2018-07-20T22:51:03.786Z,9.80
2018-07-20T22:53:32.509Z,9.90
2018-07-20T22:56:01.195Z,9.80
2018-07-20T22:58:30.238Z,9.60
2018-07-20T23:00:58.929Z,9.67
2018-07-20T23:03:27.876Z,9.90
2018-07-20T23:08:36.751Z,9.60
2018-07-20T23:11:07.249Z,10.30
2018-07-20T23:13:37.749Z,10.00
2018-07-20T23:16:08.367Z,9.50
2018-07-20T23:18:38.573Z,10.10
2018-07-20T23:21:08.198Z,10.03
2018-07-20T23:23:37.539Z,9.70
2018-07-20T23:26:06.417Z,10.27
2018-07-20T23:28:35.289Z,9.90
2018-07-20T23:31:04.211Z,10.23
2018-07-20T23:33:34.806Z,10.00
2018-07-20T23:36:06.035Z,9.83
2018-07-20T23:38:35.324Z,11.03
2018-07-20T23:41:04.396Z,9.93
2018-07-20T23:43:34.036Z,10.70
2018-07-20T23:46:03.054Z,10.03
2018-07-20T23:48:32.400Z,9.97
2018-07-20T23:51:02.490Z,10.70
2018-07-20T23:53:32.293Z,10.40
2018-07-20T23:56:02.922Z,10.70
2018-07-20T23:58:32.160Z,10.23
